createdAt,value
2023-05-15T00:00:09.788Z,83.52
2023-05-15T00:01:09.482Z,83.79
2023-05-15T00:02:09.758Z,84.04
2023-05-15T00:03:10.396Z,84.32
2023-05-15T00:04:10.701Z,84.52
2023-05-15T00:05:11.609Z,84.63
2023-05-15T00:06:11.353Z,84.63
2023-05-15T00:07:11.746Z,84.42
2023-05-15T00:08:12.025Z,84.4
2023-05-15T00:09:12.497Z,84.28
2023-05-15T00:10:12.917Z,84.45
2023-05-15T00:11:13.099Z,84.44
2023-05-15T00:12:13.657Z,84.64
2023-05-15T00:13:14.153Z,84.98
2023-05-15T00:14:14.422Z,85.1
2023-05-15T00:15:14.797Z,85.19
2023-05-15T00:16:15.565Z,85.03
2023-05-15T00:17:15.614Z,85.02
2023-05-15T00:18:15.943Z,85.07
2023-05-15T00:19:16.568Z,85.22
2023-05-15T00:20:16.769Z,85.62
2023-05-15T00:21:17.303Z,85.84
2023-05-15T00:22:17.514Z,86.19
2023-05-15T00:23:17.931Z,86.08
2023-05-15T00:24:18.319Z,86.17
2023-05-15T00:25:19.108Z,86.27
2023-05-15T00:26:19.065Z,86.47
2023-05-15T00:27:20.184Z,86.58
2023-05-15T00:28:20.017Z,87
2023-05-15T00:29:20.216Z,87.04
2023-05-15T00:30:20.616Z,86.95
2023-05-15T00:31:21.118Z,86.65
2023-05-15T00:32:21.323Z,86.42
2023-05-15T00:33:21.731Z,86.41
2023-05-15T00:34:22.708Z,86.59
2023-05-15T00:35:23.087Z,86.85
2023-05-15T00:36:22.868Z,87.08
2023-05-15T00:37:24.147Z,86.77
2023-05-15T00:38:23.588Z,86.94
2023-05-15T00:39:24.062Z,86.97
2023-05-15T00:40:25.763Z,86.56
2023-05-15T00:41:25.620Z,86.81
2023-05-15T00:42:25.933Z,87.08
2023-05-15T00:43:26.683Z,87.13
2023-05-15T00:44:27.807Z,87.1
2023-05-15T00:45:27.200Z,86.99
2023-05-15T00:46:28.675Z,86.97
2023-05-15T00:47:27.305Z,87.21
2023-05-15T00:48:29.241Z,87.48
2023-05-15T00:49:29.150Z,87.08
2023-05-15T00:50:29.471Z,87.27
2023-05-15T00:51:28.560Z,87.3
2023-05-15T00:52:30.190Z,87.37
2023-05-15T00:53:29.445Z,87.13
2023-05-15T00:54:29.924Z,87.03
2023-05-15T00:55:31.545Z,86.91
2023-05-15T00:56:32.073Z,87.24
2023-05-15T00:57:32.181Z,87.52
2023-05-15T00:58:32.198Z,87.73
2023-05-15T00:59:32.903Z,87.63
2023-05-15T01:00:33.434Z,87.44
2023-05-15T01:01:32.946Z,87.62
2023-05-15T01:02:32.759Z,87.71
2023-05-15T01:03:33.308Z,87.67
2023-05-15T01:04:33.545Z,87.38
2023-05-15T01:05:34.175Z,87.27
2023-05-15T01:06:34.276Z,87.26
2023-05-15T01:09:42.898Z,86.67
2023-05-15T01:10:43.119Z,86.63
2023-05-15T01:11:42.415Z,86.81
2023-05-15T01:12:43.301Z,87.37
2023-05-15T01:13:41.955Z,87.88
2023-05-15T01:14:42.131Z,88.22
2023-05-15T01:15:43.512Z,88.59
2023-05-15T01:16:43.171Z,88.54
2023-05-15T01:17:43.345Z,88.72
2023-05-15T01:18:43.819Z,88.85
2023-05-15T01:19:46.345Z,89.06
2023-05-15T01:31:16.062Z,89
2023-05-15T01:32:24.943Z,88.81
2023-05-15T01:34:28.315Z,89.31
2023-05-15T01:37:29.279Z,89.27
2023-05-15T01:39:35.934Z,89.38
2023-05-15T01:40:33.883Z,89.82
2023-05-15T01:42:40.668Z,89.6
2023-05-15T01:43:42.502Z,89.66
2023-05-15T01:44:45.225Z,89.37
2023-05-15T01:45:43.645Z,89.65
2023-05-15T01:46:51.299Z,89.46
2023-05-15T01:47:47.871Z,88.98
2023-05-15T01:48:46.339Z,88.97
2023-05-15T01:49:48.478Z,89.16
2023-05-15T01:50:47.432Z,89.5
2023-05-15T01:51:52.397Z,89.69
2023-05-15T01:52:54.135Z,90.07
2023-05-15T01:53:53.852Z,89.95
2023-05-15T01:54:53.598Z,89.84
2023-05-15T01:55:53.851Z,89.94
2023-05-15T01:56:54.216Z,90.73
2023-05-15T01:57:54.162Z,90.96
2023-05-15T01:58:55.099Z,91
2023-05-15T01:59:55.455Z,91.08
2023-05-15T02:00:55.217Z,91.11
2023-05-15T02:01:56.980Z,90.96
2023-05-15T02:02:56.655Z,90.98
2023-05-15T02:03:56.105Z,91.09
2023-05-15T02:04:57.194Z,90.88
2023-05-15T02:05:56.578Z,90.95
2023-05-15T02:06:56.935Z,91
2023-05-15T02:07:57.107Z,90.7
2023-05-15T02:08:58.857Z,90.67
2023-05-15T02:09:59.688Z,90.65
2023-05-15T02:11:00.168Z,90.64
2023-05-15T02:12:01.089Z,90.34
2023-05-15T02:12:59.908Z,90.3
2023-05-15T02:14:00.428Z,90.38
2023-05-15T02:15:01.262Z,90.49
2023-05-15T02:15:59.950Z,90.55
2023-05-15T02:17:00.166Z,90.76
2023-05-15T02:18:00.670Z,90.77
2023-05-15T02:19:01.111Z,90.36
2023-05-15T02:20:01.488Z,90.36
2023-05-15T02:21:01.808Z,90.75
2023-05-15T02:22:02.022Z,91.17
2023-05-15T02:23:02.440Z,91.21
2023-05-15T02:24:02.688Z,91.11
2023-05-15T02:25:03.472Z,90.89
2023-05-15T02:36:33.021Z,89.72
2023-05-15T02:37:33.857Z,89.63
2023-05-15T02:39:35.055Z,89.81
2023-05-15T02:40:36.650Z,89.79
2023-05-15T02:41:38.286Z,89.61
2023-05-15T02:42:36.808Z,89.66
2023-05-15T02:43:36.672Z,89.82
2023-05-15T02:44:37.326Z,89.58
2023-05-15T02:45:37.235Z,89.5
2023-05-15T02:46:38.933Z,89.35
2023-05-15T02:47:38.328Z,89.06
2023-05-15T02:48:41.930Z,88.81
2023-05-15T02:49:40.799Z,88.37
2023-05-15T02:50:39.785Z,88.21
2023-05-15T02:51:40.809Z,88.17
2023-05-15T02:52:40.422Z,88.09
2023-05-15T02:53:42.104Z,88.16
2023-05-15T02:54:41.861Z,87.83
2023-05-15T02:55:41.758Z,87.4
2023-05-15T02:56:41.990Z,87.25
2023-05-15T02:57:42.379Z,87.49
2023-05-15T02:58:43.009Z,87.24
2023-05-15T02:59:43.424Z,87.14
2023-05-15T03:00:43.383Z,86.88
2023-05-15T03:01:43.975Z,86.69
2023-05-15T03:02:44.300Z,86.98
2023-05-15T03:03:44.832Z,87.15
2023-05-15T03:04:45.138Z,87.56
2023-05-15T03:05:45.516Z,87.45
2023-05-15T03:06:45.691Z,87.36
2023-05-15T03:07:46.289Z,87.41
2023-05-15T03:08:46.655Z,87.59
2023-05-15T03:09:46.969Z,87.55
2023-05-15T03:10:47.513Z,87.44
2023-05-15T03:11:47.807Z,87.03
2023-05-15T03:12:48.021Z,86.51
2023-05-15T03:13:48.494Z,86.26
2023-05-15T03:14:48.790Z,85.97
2023-05-15T03:15:49.153Z,85.56
2023-05-15T03:16:49.621Z,85.2
2023-05-15T03:17:49.927Z,84.81
2023-05-15T03:18:50.365Z,84.48
2023-05-15T03:19:50.761Z,84.26
2023-05-15T03:20:52.838Z,84
2023-05-15T03:21:51.371Z,83.8
2023-05-15T03:22:51.879Z,83.44
2023-05-15T03:23:52.192Z,83.18
2023-05-15T03:24:52.810Z,82.73
2023-05-15T03:25:53.016Z,82.44
2023-05-15T03:26:53.318Z,82.28
2023-05-15T03:27:53.692Z,81.5
2023-05-15T03:28:55.350Z,81.54
2023-05-15T03:29:54.890Z,81.01
2023-05-15T03:30:54.801Z,80.56
2023-05-15T03:31:55.311Z,80.52
2023-05-15T03:32:55.712Z,80.47
2023-05-15T03:33:56.001Z,78.57
2023-05-15T03:34:56.454Z,77.23
2023-05-15T03:35:56.731Z,77.15
2023-05-15T03:36:57.282Z,77.86
2023-05-15T03:37:57.599Z,78.57
2023-05-15T03:38:57.971Z,78.76
2023-05-15T03:39:58.442Z,79.13
2023-05-15T03:40:58.975Z,79.34
2023-05-15T03:41:59.210Z,79.76
2023-05-15T03:42:59.561Z,79.95
2023-05-15T03:43:59.995Z,80.87
2023-05-15T03:45:00.606Z,81.94
2023-05-15T03:46:01.049Z,81.63
2023-05-15T03:47:01.320Z,81.74
2023-05-15T03:48:01.641Z,82.4
2023-05-15T03:49:01.970Z,81.99
2023-05-15T03:50:02.330Z,81.42
2023-05-15T03:51:03.012Z,80.96
2023-05-15T03:52:03.125Z,80.86
2023-05-15T03:53:03.577Z,80.93
2023-05-15T03:54:04.365Z,80.85
2023-05-15T03:55:05.928Z,80.79
2023-05-15T03:56:05.396Z,80.62
2023-05-15T03:57:05.721Z,80.27
2023-05-15T03:58:05.608Z,79.77
2023-05-15T03:59:06.039Z,79.53
2023-05-15T04:00:07.549Z,79.28
2023-05-15T04:01:06.660Z,78.93
2023-05-15T04:02:07.218Z,78.45
2023-05-15T04:03:08.655Z,78.4
2023-05-15T04:04:08.031Z,78.19
2023-05-15T04:05:09.688Z,77.73
2023-05-15T04:06:08.586Z,78
2023-05-15T04:07:09.059Z,77.74
2023-05-15T04:08:09.577Z,77.77
2023-05-15T04:09:10.008Z,77.5
2023-05-15T04:10:10.915Z,77.5
2023-05-15T04:11:11.337Z,77.2
2023-05-15T04:12:11.191Z,77.3
2023-05-15T04:13:11.595Z,77.51
2023-05-15T04:14:11.926Z,76.92
2023-05-15T04:16:15.089Z,76.07
2023-05-15T04:17:15.462Z,76.47
2023-05-15T04:18:15.793Z,76.18
2023-05-15T04:19:16.421Z,75.61
2023-05-15T04:20:18.158Z,75.77
2023-05-15T04:21:17.136Z,76.35
2023-05-15T04:22:17.443Z,74.98
2023-05-15T04:23:17.816Z,72.42
2023-05-15T04:24:18.394Z,72.95
2023-05-15T04:25:18.906Z,72.52
2023-05-15T04:26:19.210Z,73.55
2023-05-15T04:27:19.539Z,73.02
2023-05-15T04:28:19.944Z,72.89
2023-05-15T04:29:21.080Z,70.97
2023-05-15T04:30:21.093Z,71.17
2023-05-15T04:31:21.226Z,71.12
2023-05-15T04:32:21.512Z,71.69
2023-05-15T04:33:22.657Z,70.65
2023-05-15T04:34:23.056Z,70.46
2023-05-15T04:35:23.834Z,68.63
2023-05-15T04:36:23.722Z,69.49
2023-05-15T04:37:24.199Z,68.7
2023-05-15T04:38:24.784Z,68.26
2023-05-15T04:39:24.908Z,66.87
2023-05-15T04:40:25.750Z,65.05
2023-05-15T04:41:25.974Z,64.59
2023-05-15T04:42:26.384Z,64.88
2023-05-15T04:43:26.802Z,65.18
2023-05-15T04:44:27.217Z,65.57
2023-05-15T04:45:27.636Z,65.22
2023-05-15T04:46:28.017Z,64.5
2023-05-15T04:47:28.553Z,63.82
2023-05-15T04:48:28.801Z,63.93
2023-05-15T04:49:29.268Z,63.89
2023-05-15T04:50:29.757Z,64.58
2023-05-15T04:51:30.141Z,63.39
2023-05-15T04:52:30.555Z,61.86
2023-05-15T04:53:30.963Z,62.1
2023-05-15T04:54:31.371Z,62.37
2023-05-15T04:55:33.038Z,61.47
2023-05-15T04:56:32.366Z,62.02
2023-05-15T04:57:32.741Z,61.41
2023-05-15T04:58:33.099Z,60.92
2023-05-15T04:59:33.662Z,61.11
2023-05-15T05:00:34.097Z,60.55
2023-05-15T05:01:35.072Z,61.53
2023-05-15T05:02:35.502Z,60.81
2023-05-15T05:03:35.875Z,60.71
2023-05-15T05:04:36.268Z,60.76
2023-05-15T05:05:36.717Z,60.95
2023-05-15T05:06:37.308Z,60.35
2023-05-15T05:07:37.552Z,60.52
2023-05-15T05:08:37.987Z,59.7
2023-05-15T05:09:39.582Z,59.22
2023-05-15T05:10:39.038Z,59.35
2023-05-15T05:11:40.097Z,59.89
2023-05-15T05:12:39.902Z,59.2
2023-05-15T05:13:40.122Z,58.22
2023-05-15T05:14:40.509Z,58.75
2023-05-15T05:15:41.078Z,58.58
2023-05-15T05:16:42.436Z,59.14
2023-05-15T05:17:41.998Z,58.85
2023-05-15T05:18:42.400Z,58.58
2023-05-15T05:19:42.808Z,57.9
2023-05-15T05:20:43.276Z,57.68
2023-05-15T05:21:43.642Z,57.42
2023-05-15T05:22:44.267Z,56.89
2023-05-15T05:23:44.577Z,57.56
2023-05-15T05:24:45.057Z,57.04
2023-05-15T05:25:45.408Z,56.84
2023-05-15T05:26:46.038Z,57.81
2023-05-15T05:27:46.324Z,56.76
2023-05-15T05:28:46.764Z,56.65
2023-05-15T05:29:47.746Z,57.21
2023-05-15T05:30:48.489Z,56.52
2023-05-15T05:31:48.176Z,56.41
2023-05-15T05:32:48.583Z,55.86
2023-05-15T05:33:49.050Z,56
2023-05-15T05:34:49.461Z,55.51
2023-05-15T05:35:49.901Z,55.9
2023-05-15T05:36:50.906Z,55.96
2023-05-15T05:37:51.401Z,56.04
2023-05-15T05:38:51.860Z,54.11
2023-05-15T05:39:52.175Z,54.22
2023-05-15T05:40:52.792Z,54.36
2023-05-15T05:41:53.313Z,54.01
2023-05-15T05:42:53.478Z,54.05
2023-05-15T05:43:54.116Z,53.76
2023-05-15T05:44:54.429Z,54.05
2023-05-15T05:45:55.168Z,54.12
2023-05-15T05:46:55.391Z,53.74
2023-05-15T05:47:56.967Z,52.88
2023-05-15T05:48:56.441Z,52.77
2023-05-15T05:49:56.954Z,52.99
2023-05-15T05:50:57.782Z,52.33
2023-05-15T05:53:01.966Z,51.96
2023-05-15T05:54:02.443Z,53.12
2023-05-15T05:55:03.016Z,51.88
2023-05-15T05:56:03.458Z,51.2
2023-05-15T05:57:04.563Z,51.52
2023-05-15T05:58:08.561Z,51.93
2023-05-15T05:59:07.146Z,52
2023-05-15T06:00:08.521Z,51.37
2023-05-15T06:01:07.981Z,52.02
2023-05-15T06:02:08.927Z,53.17
2023-05-15T06:03:09.172Z,52.03
2023-05-15T06:04:09.588Z,51.19
2023-05-15T06:05:10.048Z,51.23
2023-05-15T06:06:10.483Z,50.23
2023-05-15T06:07:11.080Z,50.21
2023-05-15T06:08:11.290Z,50.3
2023-05-15T06:09:11.721Z,50.36
2023-05-15T06:10:12.238Z,49.68
2023-05-15T06:11:12.659Z,49.68
2023-05-15T06:12:13.060Z,49.66
2023-05-15T06:13:13.513Z,49.31
2023-05-15T06:14:14.014Z,48.94
2023-05-15T06:15:15.951Z,49.5
2023-05-15T06:16:15.141Z,49.67
2023-05-15T06:17:15.445Z,49.44
2023-05-15T06:18:15.861Z,49.12
2023-05-15T06:19:16.447Z,49.91
2023-05-15T06:20:16.994Z,49.04
2023-05-15T06:21:17.321Z,48.58
2023-05-15T06:22:17.694Z,48.77
2023-05-15T06:23:18.259Z,48.61
2023-05-15T06:24:18.769Z,48.7
2023-05-15T06:25:19.387Z,48.07
2023-05-15T06:26:19.792Z,48.17
2023-05-15T06:27:20.078Z,47.74
2023-05-15T06:28:20.516Z,48.34
2023-05-15T06:29:21.167Z,47.81
2023-05-15T06:30:21.768Z,47.11
2023-05-15T06:31:22.225Z,47.52
2023-05-15T06:32:22.468Z,46.78
2023-05-15T06:33:22.931Z,47.12
2023-05-15T06:34:23.352Z,47.27
2023-05-15T06:35:23.797Z,47.04
2023-05-15T06:36:24.276Z,47.26
2023-05-15T06:37:24.546Z,47.62
2023-05-15T06:38:25.116Z,46.81
2023-05-15T06:39:25.399Z,46.77
2023-05-15T06:40:26.911Z,46.8
2023-05-15T06:41:26.869Z,46.53
2023-05-15T06:42:27.381Z,46.25
2023-05-15T06:43:27.653Z,45.79
2023-05-15T06:44:28.656Z,45.62
2023-05-15T06:45:28.553Z,45.73
2023-05-15T06:46:28.699Z,45.71
2023-05-15T06:47:29.137Z,45.46
2023-05-15T06:48:29.477Z,45.67
2023-05-15T06:49:29.916Z,46.53
2023-05-15T06:50:30.224Z,47.11
2023-05-15T06:51:31.022Z,45.21
2023-05-15T06:52:31.155Z,45.67
2023-05-15T06:53:31.409Z,45.75
2023-05-15T06:54:31.771Z,46.07
2023-05-15T06:55:32.385Z,44.6
2023-05-15T06:56:32.595Z,44.63
2023-05-15T06:57:34.052Z,44.95
2023-05-15T06:58:33.328Z,44.88
2023-05-15T06:59:33.696Z,44.91
2023-05-15T07:00:34.091Z,44.22
2023-05-15T07:01:34.785Z,44.04
2023-05-15T07:02:34.830Z,44.06
2023-05-15T07:03:35.219Z,44.08
2023-05-15T07:04:35.783Z,44.77
2023-05-15T07:05:35.940Z,43.56
2023-05-15T07:06:37.396Z,43.69
2023-05-15T07:07:36.787Z,43.52
2023-05-15T07:08:37.194Z,43.7
2023-05-15T07:09:37.621Z,43.82
2023-05-15T07:10:38.053Z,42.73
2023-05-15T07:11:38.334Z,42.98
2023-05-15T07:12:38.851Z,42.66
2023-05-15T07:13:39.257Z,43.03
2023-05-15T07:14:39.424Z,42.79
2023-05-15T07:15:40.015Z,42.46
2023-05-15T07:16:40.198Z,41.98
2023-05-15T07:17:40.606Z,42.38
2023-05-15T07:18:40.889Z,42.71
2023-05-15T07:19:41.354Z,42.2
2023-05-15T07:20:41.631Z,42.07
2023-05-15T07:21:42.080Z,41.95
2023-05-15T07:22:52.340Z,41.84
2023-05-15T07:23:43.574Z,41.13
2023-05-15T07:24:44.145Z,41.15
2023-05-15T07:25:45.912Z,41.89
2023-05-15T07:26:57.390Z,41.52
2023-05-15T07:27:46.009Z,41.09
2023-05-15T07:28:46.648Z,40.6
2023-05-15T07:29:46.758Z,40.73
2023-05-15T07:30:48.374Z,41.15
2023-05-15T07:31:47.867Z,41
2023-05-15T07:32:47.951Z,41.02
2023-05-15T07:33:48.304Z,41.3
2023-05-15T07:34:48.734Z,40.4
2023-05-15T07:35:50.994Z,41.19
2023-05-15T07:36:49.500Z,40.18
2023-05-15T07:37:50.045Z,40.49
2023-05-15T07:38:50.295Z,40.68
2023-05-15T07:39:50.731Z,40.8
2023-05-15T07:40:51.138Z,40.48
2023-05-15T07:41:51.760Z,41.06
2023-05-15T07:42:51.841Z,40.39
2023-05-15T07:43:52.277Z,40.23
2023-05-15T07:44:52.818Z,39.8
2023-05-15T07:45:53.255Z,40.07
2023-05-15T07:46:55.281Z,39.92
2023-05-15T07:47:53.863Z,39.76
2023-05-15T07:48:54.234Z,39.7
2023-05-15T07:49:54.622Z,39.7
2023-05-15T07:50:55.177Z,39.97
2023-05-15T07:51:55.667Z,40.14
2023-05-15T07:52:55.752Z,39.65
2023-05-15T07:53:56.050Z,39.12
2023-05-15T07:54:56.762Z,39.43
2023-05-15T07:55:57.055Z,39.48
2023-05-15T07:56:57.575Z,39.27
2023-05-15T07:57:57.988Z,38.8
2023-05-15T07:58:58.350Z,38.77
2023-05-15T07:59:58.835Z,39.84
2023-05-15T08:00:59.040Z,39.04
2023-05-15T08:01:59.566Z,39.33
2023-05-15T08:03:00.544Z,39.81
2023-05-15T08:04:00.579Z,39.39
2023-05-15T08:05:00.789Z,38.91
2023-05-15T08:06:01.238Z,38.93
2023-05-15T08:07:01.668Z,38.9
2023-05-15T08:08:02.042Z,38.69
2023-05-15T08:09:02.318Z,38.73
2023-05-15T08:10:02.791Z,38.65
2023-05-15T08:11:03.103Z,38.52
2023-05-15T08:13:07.412Z,38.08
2023-05-15T08:14:07.967Z,38.16
2023-05-15T08:15:09.332Z,38.41
2023-05-15T08:16:08.716Z,38.63
2023-05-15T08:17:09.070Z,38.32
2023-05-15T08:18:10.028Z,38.07
2023-05-15T08:19:10.064Z,37.46
2023-05-15T08:20:11.156Z,37.45
2023-05-15T08:21:10.754Z,36.78
2023-05-15T08:22:11.066Z,36.86
2023-05-15T08:23:14.120Z,37.8
2023-05-15T08:24:11.847Z,37.65
2023-05-15T08:25:12.399Z,37.7
2023-05-15T08:26:12.828Z,37.89
2023-05-15T08:27:13.646Z,37.58
2023-05-15T08:28:13.535Z,37.42
2023-05-15T08:29:13.961Z,38.04
2023-05-15T08:30:14.832Z,38.14
2023-05-15T08:31:15.040Z,38.05
2023-05-15T08:32:15.201Z,38.98
2023-05-15T08:33:16.132Z,37.71
2023-05-15T08:34:16.044Z,37.73
2023-05-15T08:35:16.679Z,37.53
2023-05-15T08:36:16.922Z,37.21
2023-05-15T08:37:17.193Z,36.35
2023-05-15T08:38:17.835Z,36.64
2023-05-15T08:39:18.228Z,35.98
2023-05-15T08:40:21.334Z,36.28
2023-05-15T08:41:40.639Z,36.04
2023-05-15T08:43:27.103Z,36.51
2023-05-15T08:44:27.799Z,36.42
2023-05-15T08:45:28.248Z,36.79
2023-05-15T08:46:28.643Z,37.18
2023-05-15T08:47:35.509Z,36.97
2023-05-15T08:48:38.961Z,37.28
2023-05-15T08:50:39.195Z,36.77
2023-05-15T08:51:38.190Z,37.11
2023-05-15T08:52:38.755Z,36.38
2023-05-15T08:53:38.607Z,36.48
2023-05-15T08:54:40.756Z,36.22
2023-05-15T08:55:39.495Z,36.46
2023-05-15T08:56:39.636Z,36.86
2023-05-15T08:57:40.670Z,36.23
2023-05-15T08:58:40.345Z,36.84
2023-05-15T08:59:40.682Z,36.09
2023-05-15T09:00:41.204Z,36.31
2023-05-15T09:01:41.581Z,36.54
2023-05-15T09:02:42.320Z,36.04
2023-05-15T09:03:42.293Z,35.62
2023-05-15T09:04:42.673Z,34.47
2023-05-15T09:05:43.491Z,34.28
2023-05-15T09:06:44.409Z,33.4
2023-05-15T09:07:45.616Z,33.47
2023-05-15T09:08:44.761Z,33.38
2023-05-15T09:09:48.018Z,34.01
2023-05-15T09:10:46.104Z,33.6
2023-05-15T09:11:48.305Z,34.85
2023-05-15T09:12:46.345Z,33.23
2023-05-15T09:13:46.713Z,32.78
2023-05-15T09:14:47.128Z,32.41
2023-05-15T09:15:47.657Z,32.37
2023-05-15T09:16:49.595Z,32.12
2023-05-15T09:17:50.401Z,32.28
2023-05-15T09:18:50.171Z,32.99
2023-05-15T09:19:49.371Z,31.02
2023-05-15T09:20:49.518Z,31.7
2023-05-15T09:21:49.980Z,31.91
2023-05-15T09:22:50.421Z,32.64
2023-05-15T09:23:50.815Z,32.27
2023-05-15T09:24:52.331Z,32.06
2023-05-15T09:25:51.937Z,32.38
2023-05-15T09:27:52.235Z,32.24
2023-05-15T09:29:02.227Z,32.67
2023-05-15T09:29:54.911Z,31.8
2023-05-15T09:31:05.579Z,31.32
2023-05-15T09:33:02.482Z,31.75
2023-05-15T09:34:02.426Z,31.71
2023-05-15T09:35:01.298Z,32.08
2023-05-15T09:36:03.039Z,32.62
2023-05-15T09:37:04.068Z,32.05
2023-05-15T09:38:03.971Z,31.74
2023-05-15T09:39:02.766Z,31.53
2023-05-15T09:40:10.645Z,32
2023-05-15T09:41:05.435Z,31.42
2023-05-15T09:42:11.700Z,32.63
2023-05-15T09:43:04.217Z,31.76
2023-05-15T09:44:05.263Z,30.97
2023-05-15T09:45:05.963Z,31.08
2023-05-15T09:46:06.087Z,30.75
2023-05-15T09:47:06.296Z,30.12
2023-05-15T09:48:07.359Z,30.71
2023-05-15T09:49:06.412Z,31.56
2023-05-15T09:50:10.438Z,32.03
2023-05-15T09:51:15.536Z,31.66
2023-05-15T09:52:15.772Z,31.29
2023-05-15T09:53:13.566Z,31.09
2023-05-15T09:54:18.715Z,28.09
2023-05-15T09:55:16.708Z,28.7
2023-05-15T09:56:17.195Z,29.32
2023-05-15T09:57:16.718Z,29.69
2023-05-15T09:58:18.597Z,30.42
2023-05-15T09:59:19.607Z,30.2
2023-05-15T10:00:20.093Z,30.56
2023-05-15T10:01:20.468Z,31.43
2023-05-15T10:02:25.792Z,30.39
2023-05-15T10:03:23.198Z,29.48
2023-05-15T10:04:23.457Z,29.3
2023-05-15T10:05:39.244Z,29.87
2023-05-15T10:06:25.264Z,29.62
2023-05-15T10:08:29.596Z,29.39
2023-05-15T10:09:32.852Z,28.88
2023-05-15T10:10:31.428Z,28.69
2023-05-15T10:11:32.574Z,27.94
2023-05-15T10:12:31.469Z,28.11
2023-05-15T10:13:34.564Z,28.98
2023-05-15T10:14:32.554Z,29.72
2023-05-15T10:15:33.273Z,30.02
2023-05-15T10:16:35.519Z,30.64
2023-05-15T10:17:35.348Z,30.41
2023-05-15T10:18:36.063Z,30.44
2023-05-15T10:19:34.740Z,31.04
2023-05-15T10:20:35.602Z,30.58
2023-05-15T10:21:38.556Z,30.87
2023-05-15T10:22:38.410Z,30.26
2023-05-15T10:23:37.478Z,30.64
2023-05-15T10:24:40.434Z,30
2023-05-15T10:27:41.796Z,28.81
2023-05-15T10:28:44.714Z,28.71
2023-05-15T10:29:42.816Z,29.51
2023-05-15T10:30:43.358Z,29.41
2023-05-15T10:31:43.335Z,29.49
2023-05-15T10:32:45.399Z,29.17
2023-05-15T10:33:44.475Z,29.11
2023-05-15T10:34:45.713Z,29.03
2023-05-15T10:35:46.094Z,28.6
2023-05-15T10:36:45.561Z,27.95
2023-05-15T10:37:47.692Z,28.69
2023-05-15T10:38:48.022Z,29.14
2023-05-15T10:39:47.439Z,29.13
2023-05-15T10:40:46.688Z,29.27
2023-05-15T10:41:46.846Z,30.12
2023-05-15T10:42:47.637Z,29.87
2023-05-15T10:43:48.843Z,29.45
2023-05-15T10:44:48.258Z,28.69
2023-05-15T10:45:48.267Z,28.44
2023-05-15T10:46:48.900Z,29.2
2023-05-15T10:47:48.617Z,28.97
2023-05-15T10:48:48.420Z,28.84
2023-05-15T10:49:48.885Z,28.65
2023-05-15T10:50:50.067Z,28.32
2023-05-15T10:51:49.820Z,28.13
2023-05-15T10:52:52.686Z,28.07
2023-05-15T10:53:51.570Z,27.7
2023-05-15T10:54:52.701Z,28.33
2023-05-15T10:55:50.965Z,28.54
2023-05-15T10:56:52.443Z,27.01
2023-05-15T10:57:51.392Z,26.81
2023-05-15T10:58:52.059Z,26.74
2023-05-15T10:59:52.043Z,26.72
2023-05-15T11:00:52.485Z,26.53
2023-05-15T11:01:52.878Z,26.83
2023-05-15T11:02:54.041Z,26.69
2023-05-15T11:05:02.106Z,26.9
2023-05-15T11:12:20.875Z,28.09
2023-05-15T11:13:20.982Z,27.41
2023-05-15T11:14:25.149Z,27.32
2023-05-15T11:15:22.793Z,27.62
2023-05-15T11:17:24.933Z,27.46
2023-05-15T11:18:26.091Z,27.25
2023-05-15T11:21:32.111Z,27.8
2023-05-15T11:22:35.281Z,28.69
2023-05-15T11:23:40.140Z,27.97
2023-05-15T11:25:40.769Z,27.62
2023-05-15T11:26:43.808Z,26.78
2023-05-15T11:28:43.525Z,27.35
2023-05-15T11:30:52.198Z,27.04
2023-05-15T11:31:49.779Z,27.03
2023-05-15T11:33:52.752Z,27.46
2023-05-15T11:34:53.189Z,27.34
2023-05-15T11:36:00.329Z,27.6
2023-05-15T11:36:59.225Z,28.31
2023-05-15T11:38:00.174Z,28.38
2023-05-15T11:39:00.178Z,28.19
2023-05-15T11:39:58.741Z,28.62
2023-05-15T11:41:03.015Z,28.11
2023-05-15T11:44:04.050Z,27.86
2023-05-15T11:45:05.802Z,27.48
2023-05-15T11:46:08.794Z,27.45
2023-05-15T11:49:13.127Z,28.22
2023-05-15T11:50:13.155Z,28.59
2023-05-15T11:52:13.761Z,28.59
2023-05-15T11:53:14.795Z,28.81
2023-05-15T11:54:15.534Z,29.06
2023-05-15T11:55:16.146Z,29.09
2023-05-15T11:57:20.158Z,28.57
2023-05-15T11:58:19.651Z,28.35
2023-05-15T11:59:21.393Z,28.93
2023-05-15T12:00:19.125Z,28.95
2023-05-15T12:01:19.103Z,29.36
2023-05-15T12:02:20.258Z,28.5
2023-05-15T12:04:24.796Z,29.32
2023-05-15T12:05:24.901Z,29.56
2023-05-15T12:06:26.719Z,28.98
2023-05-15T12:07:25.804Z,28.72
2023-05-15T12:08:26.705Z,28.09
2023-05-15T12:09:26.312Z,28.24
2023-05-15T12:10:26.979Z,28.67
2023-05-15T12:11:26.909Z,29.22
2023-05-15T12:12:28.283Z,28.8
2023-05-15T12:13:27.844Z,28.09
2023-05-15T12:14:31.376Z,28.65
2023-05-15T12:15:28.918Z,28.7
2023-05-15T12:16:29.257Z,28.61
2023-05-15T12:17:32.147Z,28.12
2023-05-15T12:18:33.492Z,28.13
2023-05-15T12:19:31.505Z,28.16
2023-05-15T12:20:34.682Z,28.31
2023-05-15T12:21:32.237Z,28.95
2023-05-15T12:23:36.337Z,29.38
2023-05-15T12:24:38.513Z,29.09
2023-05-15T12:25:37.381Z,29.5
2023-05-15T12:26:37.796Z,29.3
2023-05-15T12:27:39.347Z,29.31
2023-05-15T12:28:38.833Z,28.95
2023-05-15T12:29:39.351Z,29.47
2023-05-15T12:30:40.142Z,29.61
2023-05-15T12:31:39.394Z,29.44
2023-05-15T12:32:40.192Z,29.78
2023-05-15T12:33:40.092Z,29.11
2023-05-15T12:34:40.197Z,29.38
2023-05-15T12:36:43.084Z,28.79
2023-05-15T12:37:43.607Z,29.19
2023-05-15T12:38:43.815Z,29.08
2023-05-15T12:40:51.304Z,29.16
2023-05-15T12:41:49.703Z,29.26
2023-05-15T12:42:53.867Z,29.13
2023-05-15T12:43:51.217Z,29.57
2023-05-15T12:44:52.563Z,29.45
2023-05-15T12:45:56.189Z,30.04
2023-05-15T12:46:54.770Z,30.05
2023-05-15T12:47:54.035Z,30.13
2023-05-15T12:48:54.598Z,29.66
2023-05-15T12:49:57.618Z,29.3
2023-05-15T12:50:55.020Z,29.35
2023-05-15T12:51:55.380Z,29.61
2023-05-15T12:52:57.735Z,29.68
2023-05-15T12:53:56.657Z,29.92
2023-05-15T12:54:59.903Z,29.79
2023-05-15T12:55:57.450Z,29.82
2023-05-15T12:56:58.049Z,29.84
2023-05-15T12:58:00.129Z,30.22
2023-05-15T12:58:58.292Z,30.28
2023-05-15T13:00:00.221Z,30.49
2023-05-15T13:00:59.167Z,30.75
2023-05-15T13:01:59.666Z,30.74
2023-05-15T13:02:59.822Z,29.61
2023-05-15T13:04:00.261Z,28.81
2023-05-15T13:05:05.186Z,29.18
2023-05-15T13:06:03.134Z,29.31
2023-05-15T13:07:03.244Z,29.07
2023-05-15T13:08:05.312Z,29.71
2023-05-15T13:09:03.766Z,29.03
2023-05-15T13:10:08.561Z,29.58
2023-05-15T13:11:06.146Z,28.84
2023-05-15T13:12:06.855Z,28.26
2023-05-15T13:13:06.720Z,28.34
2023-05-15T13:14:09.642Z,28.58
2023-05-15T13:15:08.416Z,28.21
2023-05-15T13:17:09.653Z,28.25
2023-05-15T13:18:15.118Z,28.2
2023-05-15T13:19:13.292Z,28.52
2023-05-15T13:20:13.160Z,29.5
2023-05-15T13:21:13.160Z,28.92
2023-05-15T13:22:13.659Z,28.7
2023-05-15T13:23:16.451Z,28.83
2023-05-15T13:24:14.215Z,28.86
2023-05-15T13:25:18.309Z,29.25
2023-05-15T13:26:15.841Z,29.46
2023-05-15T13:27:16.061Z,29.73
2023-05-15T13:28:16.349Z,28.88
2023-05-15T13:29:16.719Z,29.16
2023-05-15T13:30:18.161Z,29.36
2023-05-15T13:31:17.504Z,28.85
2023-05-15T13:32:17.980Z,29.18
2023-05-15T13:33:18.313Z,29.55
2023-05-15T13:34:19.334Z,28.77
2023-05-15T13:35:18.993Z,28.82
2023-05-15T13:36:19.415Z,28.54
2023-05-15T13:37:19.821Z,28.1
2023-05-15T13:38:20.335Z,28.28
2023-05-15T13:39:20.705Z,28
2023-05-15T13:40:21.272Z,27.85
2023-05-15T13:41:21.542Z,27.55
2023-05-15T13:42:22.014Z,27.82
2023-05-15T13:43:22.887Z,27.95
2023-05-15T13:44:22.684Z,27.92
2023-05-15T13:45:23.141Z,28.08
2023-05-15T13:46:23.486Z,28.01
2023-05-15T13:47:23.710Z,28.27
2023-05-15T13:48:24.200Z,28.26
2023-05-15T13:49:24.525Z,27.67
2023-05-15T13:50:25.151Z,27.98
2023-05-15T13:51:25.090Z,27.47
2023-05-15T13:52:26.889Z,27.14
2023-05-15T13:53:25.732Z,27.36
2023-05-15T13:54:26.093Z,27.71
2023-05-15T13:55:26.903Z,28.49
2023-05-15T13:56:26.811Z,28.32
2023-05-15T13:57:27.227Z,27.6
2023-05-15T13:58:27.404Z,27.97
2023-05-15T13:59:27.924Z,27.97
2023-05-15T14:00:28.132Z,28.17
2023-05-15T14:01:28.566Z,27.85
2023-05-15T14:02:28.821Z,28.11
2023-05-15T14:03:29.111Z,28.27
2023-05-15T14:04:29.552Z,27.51
2023-05-15T14:05:30.257Z,27.76
2023-05-15T14:06:30.521Z,27.8
2023-05-15T14:07:30.548Z,27.38
2023-05-15T14:08:30.680Z,27.45